Time;durP1;ratioP1;P1;durP2;ratioP2;P2;SDS_P1;SDS_P2;PMS_P1;PMS_P2;Temp;Humidity;BMP_temperature;BMP_pressure;BME280_temperature;BME280_humidity;BME280_pressure;Samples;Min_cycle;Max_cycle;Signal;HPM_P1;HPM_P2
2023/03/03 00:00:17;;;;;;;;;;;1.30;99.90;;;;;;5079464;28;19913;-82
2023/03/03 00:02:43;;;;;;;;;;;1.30;99.90;;;;;;5078971;28;19919;-82
2023/03/03 00:05:09;;;;;;;;;;;1.40;99.90;;;;;;5060970;28;19917;-83
2023/03/03 00:07:34;;;;;;;;;;;1.30;99.90;;;;;;5061004;28;19966;-83
2023/03/03 00:10:00;;;;;;;;;;;1.40;99.90;;;;;;5044140;28;20396;-83
2023/03/03 00:12:27;;;;;;;;;;;1.40;99.90;;;;;;5060825;28;19913;-83
2023/03/03 00:14:53;;;;;;;;;;;1.40;99.90;;;;;;5078740;28;19909;-82
2023/03/03 00:17:23;;;;;;;;;;;1.40;99.90;;;;;;5060810;28;19915;-82
2023/03/03 00:19:49;;;;;;;;;;;1.40;99.90;;;;;;5060531;28;19912;-82
2023/03/03 00:22:34;;;;;;;;;;;1.40;99.90;;;;;;5060133;28;19920;-83
2023/03/03 00:25:19;;;;;;;;;;;1.40;99.90;;;;;;5059442;28;20361;-83
2023/03/03 00:27:45;;;;;;;;;;;1.30;99.90;;;;;;5078112;28;20335;-83
2023/03/03 00:30:24;;;;;;;;;;;1.30;99.90;;;;;;5077986;28;19908;-83
2023/03/03 00:32:51;;;;;;;;;;;1.30;99.90;;;;;;5059866;28;20364;-83
2023/03/03 00:35:25;;;;;;;;;;;1.30;99.90;;;;;;5060241;28;20327;-83
2023/03/03 00:37:58;;;;;;;;;;;1.30;99.90;;;;;;5077849;28;19930;-83
2023/03/03 00:40:26;;;;;;;;;;;1.30;99.90;;;;;;5060860;28;19995;-83
2023/03/03 00:42:56;;;;;;;;;;;1.30;99.90;;;;;;5081076;28;19909;-83
2023/03/03 00:45:36;;;;;;;;;;;1.20;99.90;;;;;;5079929;28;20292;-83
2023/03/03 00:48:28;;;;;;;;;;;1.20;99.90;;;;;;5060936;28;19995;-83
2023/03/03 00:50:55;;;;;;;;;;;1.20;99.90;;;;;;5029481;28;20384;-83
2023/03/03 00:53:22;;;;;;;;;;;1.30;99.90;;;;;;5059243;28;19913;-83
2023/03/03 00:55:48;;;;;;;;;;;1.30;99.90;;;;;;5059732;28;19912;-83
2023/03/03 00:58:14;;;;;;;;;;;1.40;99.90;;;;;;5077595;28;19909;-83
2023/03/03 01:00:40;;;;;;;;;;;1.40;99.90;;;;;;5077680;28;19998;-83
2023/03/03 01:03:07;;;;;;;;;;;1.40;99.90;;;;;;5059733;28;20389;-83
2023/03/03 01:05:33;;;;;;;;;;;1.40;99.90;;;;;;5077520;28;19913;-83
2023/03/03 01:07:58;;;;;;;;;;;1.40;99.90;;;;;;5059354;28;19908;-83
2023/03/03 01:10:25;;;;;;;;;;;1.40;99.90;;;;;;5059595;28;19912;-83
2023/03/03 01:12:50;;;;;;;;;;;1.40;99.90;;;;;;5059340;28;19915;-83
2023/03/03 01:15:16;;;;;;;;;;;1.40;99.90;;;;;;5059486;28;20427;-83
2023/03/03 01:17:42;;;;;;;;;;;1.40;99.90;;;;;;5059392;28;19999;-83
2023/03/03 01:20:09;;;;;;;;;;;1.40;99.90;;;;;;5042718;28;19913;-83
2023/03/03 01:22:34;;;;;;;;;;;1.40;99.90;;;;;;5059351;28;19963;-83
2023/03/03 01:25:02;;;;;;;;;;;1.40;99.90;;;;;;5059207;28;20349;-83
2023/03/03 01:27:28;;;;;;;;;;;1.40;99.90;;;;;;5077100;28;20368;-83
2023/03/03 01:29:55;;;;;;;;;;;1.30;99.90;;;;;;5059463;28;19958;-83
2023/03/03 01:32:21;;;;;;;;;;;1.30;99.90;;;;;;5076979;28;19919;-83
2023/03/03 01:34:47;;;;;;;;;;;1.30;99.90;;;;;;5059053;28;19912;-83
2023/03/03 01:37:12;;;;;;;;;;;1.40;99.90;;;;;;5076801;28;19912;-83
2023/03/03 01:39:38;;;;;;;;;;;1.40;99.90;;;;;;5077056;28;19999;-83
2023/03/03 01:42:03;;;;;;;;;;;1.40;99.90;;;;;;5042453;28;20368;-83
2023/03/03 01:44:29;;;;;;;;;;;1.50;99.90;;;;;;5058726;28;20365;-83
2023/03/03 01:46:54;;;;;;;;;;;1.40;99.90;;;;;;5076815;28;19970;-83
2023/03/03 01:49:35;;;;;;;;;;;1.50;99.90;;;;;;5058927;28;19916;-83
2023/03/03 01:52:03;;;;;;;;;;;1.50;99.90;;;;;;5058919;28;19909;-83
2023/03/03 01:54:32;;;;;;;;;;;1.50;99.90;;;;;;5076807;28;20012;-83
2023/03/03 01:57:03;;;;;;;;;;;1.50;99.90;;;;;;5058643;28;19986;-83
2023/03/03 01:59:32;;;;;;;;;;;1.50;99.90;;;;;;5058684;28;20350;-83
2023/03/03 02:01:58;;;;;;;;;;;1.50;99.90;;;;;;5058702;28;20324;-83
2023/03/03 02:04:25;;;;;;;;;;;1.50;99.90;;;;;;5059432;28;19959;-83
2023/03/03 02:06:55;;;;;;;;;;;1.50;99.90;;;;;;5058902;28;19952;-83
2023/03/03 02:09:36;;;;;;;;;;;1.50;99.90;;;;;;5059051;28;20042;-83
2023/03/03 02:12:05;;;;;;;;;;;1.40;99.90;;;;;;5076852;28;19909;-83
2023/03/03 02:14:31;;;;;;;;;;;1.50;99.90;;;;;;5076860;28;19915;-83
2023/03/03 02:16:57;;;;;;;;;;;1.50;99.90;;;;;;5059270;28;19912;-83
2023/03/03 02:19:28;;;;;;;;;;;1.50;99.90;;;;;;5059517;28;20387;-83
2023/03/03 02:21:54;;;;;;;;;;;1.50;99.90;;;;;;5059090;28;19920;-83
2023/03/03 02:24:33;;;;;;;;;;;1.50;99.90;;;;;;5059206;28;19916;-83
2023/03/03 02:26:59;;;;;;;;;;;1.50;99.90;;;;;;5078403;28;20296;-83
2023/03/03 02:29:25;;;;;;;;;;;1.50;99.90;;;;;;5043133;28;19979;-83
2023/03/03 02:31:50;;;;;;;;;;;1.50;99.90;;;;;;5059175;28;19920;-82
2023/03/03 02:34:16;;;;;;;;;;;1.50;99.90;;;;;;5059217;28;20361;-83
2023/03/03 02:36:42;;;;;;;;;;;1.50;99.90;;;;;;5059240;28;19919;-83
2023/03/03 02:39:07;;;;;;;;;;;1.50;99.90;;;;;;5059008;28;19956;-83
2023/03/03 02:41:42;;;;;;;;;;;1.50;99.90;;;;;;5076904;28;19908;-83
2023/03/03 02:44:11;;;;;;;;;;;1.50;99.90;;;;;;5076409;28;19916;-83
2023/03/03 02:46:39;;;;;;;;;;;1.50;99.90;;;;;;5076686;28;19913;-83
2023/03/03 02:49:05;;;;;;;;;;;1.50;99.90;;;;;;5058333;28;19919;-83
2023/03/03 02:51:31;;;;;;;;;;;1.50;99.90;;;;;;5076967;28;19960;-83
2023/03/03 02:53:57;;;;;;;;;;;1.50;99.90;;;;;;5076915;28;19958;-83
2023/03/03 02:56:22;;;;;;;;;;;1.50;99.90;;;;;;5058580;28;19913;-83
2023/03/03 02:58:48;;;;;;;;;;;1.50;99.90;;;;;;5076335;28;20388;-83
2023/03/03 03:01:13;;;;;;;;;;;1.50;99.90;;;;;;5058353;28;19912;-83
2023/03/03 03:03:39;;;;;;;;;;;1.50;99.90;;;;;;5076450;28;19954;-83
2023/03/03 03:06:05;;;;;;;;;;;1.50;99.90;;;;;;5058488;28;19974;-83
2023/03/03 03:08:30;;;;;;;;;;;1.50;99.90;;;;;;5041309;28;19916;-82
2023/03/03 03:10:56;;;;;;;;;;;1.50;99.90;;;;;;5058516;28;19912;-83
2023/03/03 03:13:22;;;;;;;;;;;1.50;99.90;;;;;;5076565;28;20003;-83
2023/03/03 03:15:48;;;;;;;;;;;1.50;99.90;;;;;;5076193;28;19958;-83
2023/03/03 03:18:14;;;;;;;;;;;1.50;99.90;;;;;;5041345;28;20385;-82
2023/03/03 03:20:40;;;;;;;;;;;1.50;99.90;;;;;;5076343;28;19908;-82
2023/03/03 03:23:06;;;;;;;;;;;1.60;99.90;;;;;;5057881;28;19917;-82
2023/03/03 03:25:32;;;;;;;;;;;1.50;99.90;;;;;;5075501;28;19912;-82
2023/03/03 03:27:57;;;;;;;;;;;1.60;99.90;;;;;;5055892;28;19912;-82
2023/03/03 03:30:23;;;;;;;;;;;1.50;99.90;;;;;;5039290;28;19913;-82
2023/03/03 03:32:49;;;;;;;;;;;1.60;99.90;;;;;;5056059;28;19956;-82
2023/03/03 03:35:16;;;;;;;;;;;1.60;99.90;;;;;;5056191;28;19970;-82
2023/03/03 03:37:41;;;;;;;;;;;1.60;99.90;;;;;;5073803;28;19912;-81
2023/03/03 03:40:07;;;;;;;;;;;1.60;99.90;;;;;;5056213;28;20011;-82
2023/03/03 03:42:33;;;;;;;;;;;1.60;99.90;;;;;;5056220;28;19913;-82
2023/03/03 03:44:59;;;;;;;;;;;1.60;99.90;;;;;;5056017;28;19966;-82
2023/03/03 03:47:24;;;;;;;;;;;1.60;99.90;;;;;;5074206;28;19995;-82
2023/03/03 03:49:50;;;;;;;;;;;1.60;99.90;;;;;;5056021;28;19951;-82
2023/03/03 03:52:15;;;;;;;;;;;1.60;99.90;;;;;;5039682;28;19912;-82
2023/03/03 03:54:41;;;;;;;;;;;1.60;99.90;;;;;;5056246;28;19912;-82
2023/03/03 03:57:07;;;;;;;;;;;1.60;99.90;;;;;;5056650;28;19913;-81
2023/03/03 03:59:33;;;;;;;;;;;1.60;99.90;;;;;;5074568;28;19958;-82
2023/03/03 04:01:58;;;;;;;;;;;1.60;99.90;;;;;;5055950;28;20296;-82
2023/03/03 04:04:24;;;;;;;;;;;1.60;99.90;;;;;;5056461;28;19977;-83
2023/03/03 04:06:49;;;;;;;;;;;1.60;99.90;;;;;;5074347;28;19912;-83
2023/03/03 04:09:15;;;;;;;;;;;1.60;99.90;;;;;;5057440;28;19912;-83
2023/03/03 04:11:40;;;;;;;;;;;1.60;99.90;;;;;;5076330;28;19919;-83
2023/03/03 04:14:06;;;;;;;;;;;1.60;99.90;;;;;;5076100;28;19919;-82
2023/03/03 04:16:31;;;;;;;;;;;1.60;99.90;;;;;;5058506;28;19909;-83
2023/03/03 04:18:57;;;;;;;;;;;1.60;99.90;;;;;;5057741;28;19935;-83
2023/03/03 04:21:24;;;;;;;;;;;1.60;99.90;;;;;;5076331;28;20280;-83
2023/03/03 04:23:49;;;;;;;;;;;1.70;99.90;;;;;;5076134;28;19994;-83
2023/03/03 04:26:15;;;;;;;;;;;1.70;99.90;;;;;;5041486;28;20404;-82
2023/03/03 04:28:40;;;;;;;;;;;1.70;99.90;;;;;;5077271;28;20315;-83
2023/03/03 04:31:06;;;;;;;;;;;1.60;99.90;;;;;;5045257;28;19912;-83
2023/03/03 04:33:31;;;;;;;;;;;1.70;99.90;;;;;;5063068;28;19913;-83
2023/03/03 04:35:57;;;;;;;;;;;1.70;99.90;;;;;;5062547;28;20448;-83
2023/03/03 04:38:23;;;;;;;;;;;1.70;99.90;;;;;;5062257;28;20388;-83
2023/03/03 04:40:48;;;;;;;;;;;1.60;99.90;;;;;;5062039;28;19947;-83
2023/03/03 04:43:14;;;;;;;;;;;1.60;99.90;;;;;;5062619;28;19917;-84
2023/03/03 04:45:40;;;;;;;;;;;1.60;99.90;;;;;;5080129;28;19912;-84
2023/03/03 04:48:06;;;;;;;;;;;1.60;99.90;;;;;;5062011;28;19913;-84
2023/03/03 04:50:31;;;;;;;;;;;1.60;99.90;;;;;;5061805;28;19908;-84
2023/03/03 04:52:57;;;;;;;;;;;1.60;99.90;;;;;;5080374;28;19948;-84
2023/03/03 04:55:22;;;;;;;;;;;1.60;99.90;;;;;;5080661;28;19913;-84
2023/03/03 04:57:48;;;;;;;;;;;1.60;99.90;;;;;;5080490;28;19944;-83
2023/03/03 05:00:14;;;;;;;;;;;1.60;99.90;;;;;;5062786;28;19909;-83
2023/03/03 05:02:40;;;;;;;;;;;1.60;99.90;;;;;;5063929;28;20269;-83
2023/03/03 05:05:06;;;;;;;;;;;1.60;99.90;;;;;;5063446;28;19913;-83
2023/03/03 05:07:32;;;;;;;;;;;1.60;99.90;;;;;;5063477;28;20292;-83
2023/03/03 05:09:57;;;;;;;;;;;1.60;99.90;;;;;;5062691;28;20357;-83
2023/03/03 05:12:23;;;;;;;;;;;1.60;99.90;;;;;;5079417;28;19919;-83
2023/03/03 05:14:49;;;;;;;;;;;1.60;99.90;;;;;;5079805;28;19909;-83
2023/03/03 05:17:14;;;;;;;;;;;1.60;99.90;;;;;;5061700;28;19959;-83
2023/03/03 05:19:40;;;;;;;;;;;1.70;99.90;;;;;;5079600;28;19913;-83
2023/03/03 05:22:05;;;;;;;;;;;1.70;99.90;;;;;;5061766;28;19974;-83
2023/03/03 05:24:31;;;;;;;;;;;1.70;99.90;;;;;;5079307;28;19913;-83
2023/03/03 05:26:57;;;;;;;;;;;1.70;99.90;;;;;;5079882;28;20375;-83
2023/03/03 05:29:22;;;;;;;;;;;1.70;99.90;;;;;;5061897;28;19909;-83
2023/03/03 05:31:48;;;;;;;;;;;1.60;99.90;;;;;;5080121;28;20314;-81
2023/03/03 05:34:14;;;;;;;;;;;1.60;99.90;;;;;;5061639;28;19963;-81
2023/03/03 05:36:40;;;;;;;;;;;1.60;99.90;;;;;;5079593;28;20376;-81
2023/03/03 05:39:05;;;;;;;;;;;1.60;99.90;;;;;;5061639;28;19909;-81
2023/03/03 05:41:31;;;;;;;;;;;1.60;99.90;;;;;;5044321;28;19952;-80
2023/03/03 05:43:56;;;;;;;;;;;1.60;99.90;;;;;;5045674;28;20326;-81
2023/03/03 05:46:22;;;;;;;;;;;1.60;99.90;;;;;;5079914;28;19924;-81
2023/03/03 05:48:47;;;;;;;;;;;1.50;99.90;;;;;;5058564;28;19912;-81
2023/03/03 05:51:13;;;;;;;;;;;1.50;99.90;;;;;;5076077;28;20400;-81
2023/03/03 05:53:39;;;;;;;;;;;1.50;99.90;;;;;;5058192;28;20277;-81
2023/03/03 05:56:05;;;;;;;;;;;1.50;99.90;;;;;;5060171;28;19923;-81
2023/03/03 05:58:30;;;;;;;;;;;1.50;99.90;;;;;;5061058;28;19972;-80
2023/03/03 06:00:56;;;;;;;;;;;1.50;99.90;;;;;;5084265;28;19913;-81
2023/03/03 06:03:21;;;;;;;;;;;1.50;99.90;;;;;;5052914;28;19912;-81
2023/03/03 06:05:47;;;;;;;;;;;1.50;99.90;;;;;;5086954;28;19959;-81
2023/03/03 06:08:13;;;;;;;;;;;1.40;99.90;;;;;;5086209;28;19913;-80
2023/03/03 06:10:39;;;;;;;;;;;1.50;99.90;;;;;;5070158;28;19931;-80
2023/03/03 06:13:04;;;;;;;;;;;1.50;99.90;;;;;;5088467;28;19919;-81
2023/03/03 06:15:30;;;;;;;;;;;1.40;99.90;;;;;;5070535;28;19912;-80
2023/03/03 06:17:55;;;;;;;;;;;1.40;99.90;;;;;;5087264;28;19912;-81
2023/03/03 06:20:21;;;;;;;;;;;1.40;99.90;;;;;;5091909;28;19909;-81
2023/03/03 06:22:46;;;;;;;;;;;1.40;99.90;;;;;;5058512;28;19956;-80
2023/03/03 06:25:12;;;;;;;;;;;1.40;99.90;;;;;;5066862;28;20384;-81
2023/03/03 06:27:38;;;;;;;;;;;1.50;99.90;;;;;;5066498;28;20299;-81
2023/03/03 06:30:04;;;;;;;;;;;1.50;99.90;;;;;;5084228;28;19912;-81
2023/03/03 06:32:30;;;;;;;;;;;1.60;99.90;;;;;;5045716;28;19913;-81
2023/03/03 06:34:55;;;;;;;;;;;1.60;99.90;;;;;;5060206;28;19915;-81
2023/03/03 06:37:21;;;;;;;;;;;1.70;99.90;;;;;;5075898;28;20403;-81
2023/03/03 06:39:46;;;;;;;;;;;1.80;99.90;;;;;;5057836;28;20372;-81
2023/03/03 06:42:12;;;;;;;;;;;1.80;99.90;;;;;;5075614;28;19913;-81
2023/03/03 06:44:37;;;;;;;;;;;1.80;99.90;;;;;;5040811;28;20368;-81
2023/03/03 06:47:04;;;;;;;;;;;1.90;99.90;;;;;;5041321;28;19912;-80
2023/03/03 06:49:30;;;;;;;;;;;1.90;99.90;;;;;;5076142;28;20360;-80
2023/03/03 06:51:57;;;;;;;;;;;2.00;99.90;;;;;;5040941;28;19963;-80
2023/03/03 06:54:26;;;;;;;;;;;2.00;99.90;;;;;;5076393;28;19908;-81
2023/03/03 06:56:54;;;;;;;;;;;2.10;99.90;;;;;;5060948;28;20489;-81
2023/03/03 06:59:20;;;;;;;;;;;2.10;99.90;;;;;;5058959;28;20283;-81
2023/03/03 07:01:47;;;;;;;;;;;2.10;99.90;;;;;;5057431;28;20284;-80
2023/03/03 07:04:24;;;;;;;;;;;2.20;99.90;;;;;;5073866;28;20543;-80
2023/03/03 07:06:49;;;;;;;;;;;2.20;99.90;;;;;;5074327;28;19920;-80
2023/03/03 07:09:23;;;;;;;;;;;2.20;99.90;;;;;;5057457;28;19913;-81
2023/03/03 07:11:50;;;;;;;;;;;2.30;99.90;;;;;;5075398;28;19923;-81
2023/03/03 07:14:17;;;;;;;;;;;2.30;99.90;;;;;;5075331;28;20356;-80
2023/03/03 07:16:43;;;;;;;;;;;2.30;99.90;;;;;;5075807;28;19908;-81
2023/03/03 07:19:26;;;;;;;;;;;2.30;99.90;;;;;;5076638;28;19915;-81
2023/03/03 07:21:52;;;;;;;;;;;2.30;99.90;;;;;;5075612;28;19917;-82
2023/03/03 07:24:23;;;;;;;;;;;2.30;99.90;;;;;;5058522;28;19967;-82
2023/03/03 07:26:50;;;;;;;;;;;2.30;99.90;;;;;;5075619;28;19912;-82
2023/03/03 07:29:15;;;;;;;;;;;2.30;99.90;;;;;;5057343;28;19912;-82
2023/03/03 07:31:44;;;;;;;;;;;2.40;99.90;;;;;;5076632;28;19954;-82
2023/03/03 07:34:15;;;;;;;;;;;2.40;99.90;;;;;;5076262;28;20007;-82
2023/03/03 07:36:42;;;;;;;;;;;2.40;99.90;;;;;;5076399;28;20407;-81
2023/03/03 07:39:34;;;;;;;;;;;2.40;99.90;;;;;;5077164;28;19909;-81
2023/03/03 07:42:08;;;;;;;;;;;2.40;99.90;;;;;;5073788;28;19909;-81
2023/03/03 07:44:35;;;;;;;;;;;2.40;99.90;;;;;;5059985;28;19908;-80
2023/03/03 07:47:19;;;;;;;;;;;2.50;99.90;;;;;;5058267;28;19955;-81
2023/03/03 07:49:46;;;;;;;;;;;2.40;99.90;;;;;;5058745;28;19952;-80
2023/03/03 07:52:24;;;;;;;;;;;2.40;99.90;;;;;;5058737;28;19913;-81
2023/03/03 07:54:50;;;;;;;;;;;2.40;99.90;;;;;;5059812;28;20291;-81
2023/03/03 07:57:26;;;;;;;;;;;2.40;99.90;;;;;;5078282;28;19917;-81
2023/03/03 07:59:51;;;;;;;;;;;2.40;99.90;;;;;;5076614;28;19909;-81
2023/03/03 08:02:17;;;;;;;;;;;2.40;99.90;;;;;;5058797;28;20431;-81
2023/03/03 08:04:51;;;;;;;;;;;2.50;99.90;;;;;;5078879;28;20047;-81
2023/03/03 08:07:17;;;;;;;;;;;2.50;99.90;;;;;;5080676;28;20262;-81
2023/03/03 08:09:43;;;;;;;;;;;2.50;99.90;;;;;;5062882;28;19962;-81
2023/03/03 08:12:12;;;;;;;;;;;2.50;99.90;;;;;;5062838;28;19908;-81
2023/03/03 08:14:37;;;;;;;;;;;2.50;99.90;;;;;;5080868;28;19958;-81
2023/03/03 08:17:13;;;;;;;;;;;2.50;99.90;;;;;;5080709;28;19916;-81
2023/03/03 08:19:38;;;;;;;;;;;2.50;99.90;;;;;;5062635;28;19908;-82
2023/03/03 08:22:17;;;;;;;;;;;2.60;99.90;;;;;;5061642;28;20595;-82
2023/03/03 08:24:43;;;;;;;;;;;2.60;99.90;;;;;;5078521;28;20349;-82
2023/03/03 08:27:08;;;;;;;;;;;2.60;99.90;;;;;;5079700;28;19908;-82
2023/03/03 08:29:34;;;;;;;;;;;2.70;99.90;;;;;;5061375;28;20020;-82
2023/03/03 08:32:00;;;;;;;;;;;2.70;99.90;;;;;;5043815;28;19912;-82
2023/03/03 08:34:25;;;;;;;;;;;2.70;99.90;;;;;;5077979;28;19919;-82
2023/03/03 08:36:51;;;;;;;;;;;2.70;99.90;;;;;;5060333;28;20038;-82
2023/03/03 08:39:16;;;;;;;;;;;2.70;99.90;;;;;;5077755;28;19913;-82
2023/03/03 08:41:43;;;;;;;;;;;2.70;99.90;;;;;;5059842;28;19912;-82
2023/03/03 08:44:11;;;;;;;;;;;2.80;99.90;;;;;;5059520;28;20383;-82
2023/03/03 08:46:37;;;;;;;;;;;2.80;99.90;;;;;;5077501;28;20001;-82
2023/03/03 08:49:03;;;;;;;;;;;2.80;99.90;;;;;;5059784;28;20414;-81
2023/03/03 08:51:28;;;;;;;;;;;2.80;99.90;;;;;;5042599;28;19912;-82
2023/03/03 08:53:54;;;;;;;;;;;2.90;99.90;;;;;;5042776;28;20376;-82
2023/03/03 08:56:20;;;;;;;;;;;2.80;99.90;;;;;;5077468;28;20364;-82
2023/03/03 08:58:46;;;;;;;;;;;2.80;99.90;;;;;;5077429;28;19908;-82
2023/03/03 09:01:13;;;;;;;;;;;2.80;99.90;;;;;;5059605;28;19912;-82
2023/03/03 09:03:39;;;;;;;;;;;2.80;99.90;;;;;;5077089;28;19915;-83
2023/03/03 09:06:04;;;;;;;;;;;2.80;99.90;;;;;;5042626;28;19946;-81
2023/03/03 09:08:30;;;;;;;;;;;2.80;99.90;;;;;;5059038;28;19921;-82
2023/03/03 09:10:55;;;;;;;;;;;2.80;99.90;;;;;;5058979;28;19919;-82
2023/03/03 09:13:21;;;;;;;;;;;2.80;99.90;;;;;;5059110;28;19955;-83
2023/03/03 09:15:47;;;;;;;;;;;2.80;99.90;;;;;;5059278;28;19913;-83
2023/03/03 09:18:15;;;;;;;;;;;2.80;99.90;;;;;;5058996;28;19913;-83
2023/03/03 09:20:42;;;;;;;;;;;2.80;99.90;;;;;;5059233;28;19909;-83
2023/03/03 09:23:23;;;;;;;;;;;2.80;99.90;;;;;;5058934;28;20437;-83
2023/03/03 09:25:49;;;;;;;;;;;2.90;99.90;;;;;;5058723;28;19962;-83
2023/03/03 09:28:28;;;;;;;;;;;3.00;99.90;;;;;;5058677;28;19912;-83
2023/03/03 09:30:55;;;;;;;;;;;3.00;99.90;;;;;;5077147;28;19962;-84
2023/03/03 09:33:26;;;;;;;;;;;3.00;99.90;;;;;;5076611;28;19920;-83
2023/03/03 09:36:11;;;;;;;;;;;3.00;99.90;;;;;;5076561;28;19944;-83
2023/03/03 09:38:39;;;;;;;;;;;3.10;99.90;;;;;;5077073;28;19930;-83
2023/03/03 09:41:23;;;;;;;;;;;3.00;99.90;;;;;;5059416;28;19909;-83
2023/03/03 09:43:48;;;;;;;;;;;3.00;99.90;;;;;;5077109;28;19908;-83
2023/03/03 09:46:29;;;;;;;;;;;3.10;99.90;;;;;;5061991;28;20320;-83
2023/03/03 09:49:13;;;;;;;;;;;3.10;99.90;;;;;;5079208;28;19918;-84
2023/03/03 09:51:53;;;;;;;;;;;3.10;99.90;;;;;;5058284;28;19959;-83
2023/03/03 09:54:37;;;;;;;;;;;3.20;99.90;;;;;;5076443;28;19908;-83
2023/03/03 09:57:04;;;;;;;;;;;3.20;99.90;;;;;;5058478;28;20388;-83
2023/03/03 09:59:42;;;;;;;;;;;3.20;99.90;;;;;;5058419;28;19995;-83
2023/03/03 10:02:23;;;;;;;;;;;3.20;99.90;;;;;;5076485;28;19915;-83
2023/03/03 10:05:11;;;;;;;;;;;3.20;99.90;;;;;;5057500;28;19909;-83
2023/03/03 10:07:55;;;;;;;;;;;3.30;99.90;;;;;;5075104;28;19909;-83
2023/03/03 10:10:21;;;;;;;;;;;3.40;99.90;;;;;;5075140;28;19952;-83
2023/03/03 10:12:58;;;;;;;;;;;3.40;99.90;;;;;;5074957;28;19966;-82
2023/03/03 10:15:25;;;;;;;;;;;3.40;99.90;;;;;;5057541;28;20280;-83
2023/03/03 10:18:03;;;;;;;;;;;3.50;99.90;;;;;;5075521;28;19968;-83
2023/03/03 10:20:47;;;;;;;;;;;3.50;99.90;;;;;;5075201;28;19909;-82
2023/03/03 10:23:33;;;;;;;;;;;3.60;99.90;;;;;;5075342;28;19961;-83
2023/03/03 10:26:04;;;;;;;;;;;3.70;99.90;;;;;;5055511;28;19935;-83
2023/03/03 10:28:39;;;;;;;;;;;3.80;99.90;;;;;;5075120;28;19909;-83
2023/03/03 10:31:04;;;;;;;;;;;3.90;99.90;;;;;;5057159;28;19909;-83
2023/03/03 10:33:50;;;;;;;;;;;4.00;99.90;;;;;;5057132;28;20011;-83
2023/03/03 10:36:22;;;;;;;;;;;4.10;99.90;;;;;;5047434;28;19913;-81
2023/03/03 10:38:59;;;;;;;;;;;4.20;99.90;;;;;;5055834;28;19912;-83
2023/03/03 10:41:42;;;;;;;;;;;4.30;99.90;;;;;;5054002;28;19962;-81
2023/03/03 10:44:17;;;;;;;;;;;4.40;99.90;;;;;;5054186;28;19915;-82
2023/03/03 10:46:54;;;;;;;;;;;4.40;99.90;;;;;;5054528;28;20007;-82
2023/03/03 10:49:31;;;;;;;;;;;4.50;99.90;;;;;;5055820;28;19958;-82
2023/03/03 10:52:06;;;;;;;;;;;4.50;99.90;;;;;;5055648;28;19942;-82
2023/03/03 10:54:34;;;;;;;;;;;4.60;99.90;;;;;;5073892;28;19908;-82
2023/03/03 10:57:12;;;;;;;;;;;4.60;99.90;;;;;;5057297;28;19949;-82
2023/03/03 10:59:38;;;;;;;;;;;4.60;99.90;;;;;;5073606;28;20012;-81
2023/03/03 11:02:22;;;;;;;;;;;4.60;99.90;;;;;;5073780;28;20376;-82
2023/03/03 11:04:53;;;;;;;;;;;4.70;99.90;;;;;;5071777;28;19988;-82
2023/03/03 11:07:27;;;;;;;;;;;4.70;99.90;;;;;;5075309;28;19908;-82
2023/03/03 11:09:56;;;;;;;;;;;4.70;99.90;;;;;;5057619;28;20074;-83
2023/03/03 11:12:30;;;;;;;;;;;4.80;99.90;;;;;;5074883;28;20283;-82
2023/03/03 11:15:05;;;;;;;;;;;4.80;99.90;;;;;;5056597;28;19916;-82
2023/03/03 11:17:49;;;;;;;;;;;4.90;99.90;;;;;;5056985;28;19909;-82
2023/03/03 11:20:19;;;;;;;;;;;4.90;99.90;;;;;;5075110;28;19919;-83
2023/03/03 11:22:53;;;;;;;;;;;5.00;99.90;;;;;;5056881;28;19916;-82
2023/03/03 11:25:24;;;;;;;;;;;5.00;99.90;;;;;;5055637;28;19917;-83
2023/03/03 11:27:52;;;;;;;;;;;5.00;99.90;;;;;;5075231;28;19908;-82
2023/03/03 11:30:18;;;;;;;;;;;5.00;99.90;;;;;;5075386;28;20075;-82
2023/03/03 11:32:50;;;;;;;;;;;5.00;99.90;;;;;;5057275;28;19908;-83
2023/03/03 11:35:34;;;;;;;;;;;5.10;99.90;;;;;;5057106;28;19917;-82
2023/03/03 11:38:03;;;;;;;;;;;5.10;99.90;;;;;;5058309;28;19962;-83
2023/03/03 11:40:47;;;;;;;;;;;5.10;99.90;;;;;;5061004;28;19909;-82
2023/03/03 11:43:25;;;;;;;;;;;5.10;99.90;;;;;;5078652;28;19909;-82
2023/03/03 11:46:11;;;;;;;;;;;5.20;99.90;;;;;;5078718;28;19912;-82
2023/03/03 11:48:37;;;;;;;;;;;5.20;99.90;;;;;;5078234;28;19936;-82
2023/03/03 11:51:05;;;;;;;;;;;5.20;99.90;;;;;;5078742;28;19915;-82
2023/03/03 11:53:34;;;;;;;;;;;5.30;99.90;;;;;;5079100;28;19913;-83
2023/03/03 11:56:04;;;;;;;;;;;5.30;99.90;;;;;;5060840;28;19916;-82
2023/03/03 11:58:43;;;;;;;;;;;5.40;99.90;;;;;;5078727;28;19915;-82
2023/03/03 12:01:17;;;;;;;;;;;5.40;99.90;;;;;;5077176;28;19966;-82
2023/03/03 12:03:52;;;;;;;;;;;5.40;99.90;;;;;;5079119;28;19908;-82
2023/03/03 12:06:23;;;;;;;;;;;5.50;99.90;;;;;;5078320;28;19958;-82
2023/03/03 12:09:08;;;;;;;;;;;5.50;99.90;;;;;;5078177;28;19912;-81
2023/03/03 12:11:52;;;;;;;;;;;5.50;99.90;;;;;;5060642;28;19912;-82
2023/03/03 12:14:30;;;;;;;;;;;5.50;99.90;;;;;;5061477;28;19930;-82
2023/03/03 12:17:10;;;;;;;;;;;5.50;99.90;;;;;;5078417;28;19912;-82
2023/03/03 12:19:45;;;;;;;;;;;5.50;99.90;;;;;;5061568;28;19908;-82
2023/03/03 12:22:13;;;;;;;;;;;5.50;99.90;;;;;;5078802;28;20249;-82
2023/03/03 12:24:54;;;;;;;;;;;5.50;99.90;;;;;;5078343;28;19915;-82
2023/03/03 12:27:32;;;;;;;;;;;5.60;99.90;;;;;;5078338;28;20003;-82
2023/03/03 12:30:05;;;;;;;;;;;5.60;99.90;;;;;;5078575;28;19908;-82
2023/03/03 12:32:36;;;;;;;;;;;5.60;99.90;;;;;;5077907;28;19909;-82
2023/03/03 12:35:08;;;;;;;;;;;5.70;99.90;;;;;;5078403;28;19975;-82
2023/03/03 12:37:33;;;;;;;;;;;5.70;99.90;;;;;;5078435;28;20011;-82
2023/03/03 12:39:59;;;;;;;;;;;5.70;99.90;;;;;;5076710;28;19952;-82
2023/03/03 12:42:42;;;;;;;;;;;5.70;99.90;;;;;;5078055;28;20435;-82
2023/03/03 12:45:26;;;;;;;;;;;5.70;99.90;;;;;;5059956;28;19954;-82
2023/03/03 12:48:08;;;;;;;;;;;5.60;99.90;;;;;;5077923;28;19914;-82
2023/03/03 12:50:59;;;;;;;;;;;5.60;99.90;;;;;;5059597;28;20109;-82
2023/03/03 12:53:49;;;;;;;;;;;5.60;99.90;;;;;;5077914;28;19956;-82
2023/03/03 12:56:25;;;;;;;;;;;5.50;99.90;;;;;;5078117;28;19912;-82
2023/03/03 12:58:56;;;;;;;;;;;5.60;99.90;;;;;;5077764;28;19908;-82
2023/03/03 13:01:30;;;;;;;;;;;5.60;99.90;;;;;;5078152;28;19908;-82
2023/03/03 13:03:59;;;;;;;;;;;5.60;99.90;;;;;;5077985;28;20342;-82
2023/03/03 13:06:28;;;;;;;;;;;5.70;99.90;;;;;;5059708;28;19913;-82
2023/03/03 13:09:13;;;;;;;;;;;5.70;99.90;;;;;;5059815;28;19915;-82
2023/03/03 13:11:44;;;;;;;;;;;5.70;99.90;;;;;;5059668;28;19908;-82
2023/03/03 13:14:18;;;;;;;;;;;5.80;99.90;;;;;;5059622;28;19909;-82
2023/03/03 13:16:49;;;;;;;;;;;5.90;99.90;;;;;;5077787;28;20382;-82
2023/03/03 13:19:19;;;;;;;;;;;5.90;99.90;;;;;;5077733;28;19962;-82
2023/03/03 13:21:57;;;;;;;;;;;5.90;99.90;;;;;;5059512;28;19917;-82
2023/03/03 13:24:25;;;;;;;;;;;5.90;99.90;;;;;;5058686;28;20330;-83
2023/03/03 13:26:51;;;;;;;;;;;5.90;99.90;;;;;;5075819;28;19913;-82
2023/03/03 13:29:33;;;;;;;;;;;6.10;99.90;;;;;;5075682;28;19908;-82
2023/03/03 13:32:01;;;;;;;;;;;6.20;99.90;;;;;;5075621;28;19961;-82
2023/03/03 13:34:38;;;;;;;;;;;6.30;99.90;;;;;;5075718;28;19958;-82
2023/03/03 13:37:12;;;;;;;;;;;6.50;99.90;;;;;;5057367;28;19915;-81
2023/03/03 13:40:04;;;;;;;;;;;6.60;99.90;;;;;;5075570;28;19909;-82
2023/03/03 13:42:42;;;;;;;;;;;6.70;99.90;;;;;;5070521;28;19908;-82
2023/03/03 13:45:17;;;;;;;;;;;6.80;99.90;;;;;;5058659;28;19963;-82
2023/03/03 13:47:49;;;;;;;;;;;6.90;99.90;;;;;;5057323;28;19940;-81
2023/03/03 13:50:15;;;;;;;;;;;6.90;99.90;;;;;;5057386;28;20067;-82
2023/03/03 13:52:58;;;;;;;;;;;7.00;99.90;;;;;;5057554;28;19908;-82
2023/03/03 13:55:38;;;;;;;;;;;7.00;99.90;;;;;;5058376;28;19915;-83
2023/03/03 13:58:08;;;;;;;;;;;7.00;99.90;;;;;;5057308;28;20368;-82
2023/03/03 14:00:37;;;;;;;;;;;7.10;99.90;;;;;;5056795;28;19908;-82
2023/03/03 14:03:38;;;;;;;;;;;7.20;99.90;;;;;;5056896;28;20003;-81
2023/03/03 14:06:08;;;;;;;;;;;7.20;99.90;;;;;;4975083;28;19920;-82
2023/03/03 14:08:48;;;;;;;;;;;7.20;99.90;;;;;;5041472;28;19915;-82
2023/03/03 14:11:26;;;;;;;;;;;7.10;99.90;;;;;;5076354;28;19958;-82
2023/03/03 14:14:10;;;;;;;;;;;7.20;99.90;;;;;;5057376;28;19914;-82
2023/03/03 14:16:41;;;;;;;;;;;7.20;99.90;;;;;;5075714;28;19958;-82
2023/03/03 14:19:14;;;;;;;;;;;7.30;99.90;;;;;;5057652;28;20357;-83
2023/03/03 14:22:06;;;;;;;;;;;7.30;99.90;;;;;;5086238;28;19913;-77
2023/03/03 14:24:51;;;;;;;;;;;7.30;99.90;;;;;;5069787;28;19913;-78
2023/03/03 14:27:27;;;;;;;;;;;7.30;99.90;;;;;;5071247;28;19956;-76
2023/03/03 14:29:52;;;;;;;;;;;7.30;99.90;;;;;;5071130;28;19995;-77
2023/03/03 14:32:26;;;;;;;;;;;7.30;99.90;;;;;;5071057;28;20013;-78
2023/03/03 14:34:58;;;;;;;;;;;7.30;99.90;;;;;;5071001;28;19909;-77
2023/03/03 14:37:44;;;;;;;;;;;7.30;99.90;;;;;;5069660;28;19909;-78
2023/03/03 14:40:15;;;;;;;;;;;7.30;99.90;;;;;;5070599;28;19924;-77
2023/03/03 14:42:49;;;;;;;;;;;7.30;99.90;;;;;;5071251;28;19918;-77
2023/03/03 14:45:35;;;;;;;;;;;7.30;99.90;;;;;;5070906;28;19909;-77
2023/03/03 14:48:07;;;;;;;;;;;7.20;99.90;;;;;;5070426;28;19909;-77